Arnold, Michigan
Current Conditions -  °F | °C
As of 7:45 PM on Thursday 18 Dec 2014 (Local Time) from KSAW Reporting Station
Clear Clear  
Wind Chill: 18°   Ceiling: Unl
Heat Index: 18°   Visibility: 10mi
Dew Point: 14°   Wind: 3mph
Humidity: 86%   Direction: 20°NNE
Pressure: 30.22"   Gusts: NA
Location:  46.05°N, 87.49°W
Report Text: KSAW 190045Z 02003KT 10SM SKC M08/M10 A3022
Loading
Personal Weather Stations






























Interactive Weather Map New forecast layout! Learn more

10-Day Weather Forecast

Advertisements
Track Severe Weather on mobile